createdAt,value
2022-10-13T06:29:46.521Z,112.32
2022-10-13T06:32:14.536Z,114.65
2022-10-13T06:34:42.132Z,109.05
2022-10-13T06:37:09.883Z,111.25
2022-10-13T06:39:37.432Z,114.97
2022-10-13T06:42:05.698Z,108.50
2022-10-13T06:44:38.798Z,105.43
2022-10-13T06:47:06.895Z,102.75
2022-10-13T06:49:34.512Z,103.53
2022-10-13T06:52:02.281Z,96.13
2022-10-13T06:54:30.241Z,101.03
2022-10-13T06:56:58.154Z,89.53
2022-10-13T06:59:27.814Z,91.78
2022-10-13T07:01:55.462Z,74.35
2022-10-13T07:04:25.946Z,73.30
2022-10-13T07:06:55.991Z,76.40
2022-10-13T07:09:23.784Z,79.95
2022-10-13T07:11:51.528Z,69.43
2022-10-13T07:14:19.246Z,73.35
2022-10-13T07:16:48.453Z,68.47
2022-10-13T07:19:16.359Z,68.68
2022-10-13T07:21:44.121Z,68.28
2022-10-13T07:24:11.996Z,73.28
2022-10-13T07:26:39.664Z,62.63
2022-10-13T07:29:07.625Z,59.30
2022-10-13T07:31:35.441Z,61.13
2022-10-13T07:34:05.107Z,63.22
2022-10-13T07:36:33.255Z,56.47
2022-10-13T07:39:01.464Z,56.25
2022-10-13T07:41:29.260Z,52.25
2022-10-13T07:43:57.182Z,52.15
2022-10-13T07:46:25.695Z,54.67
2022-10-13T07:48:54.061Z,50.38
2022-10-13T07:51:22.208Z,53.50
2022-10-13T07:53:50.002Z,49.53
2022-10-13T07:56:17.694Z,55.63
2022-10-13T07:58:46.803Z,56.58
2022-10-13T08:01:14.857Z,49.40
2022-10-13T08:03:45.647Z,51.92
2022-10-13T08:06:19.640Z,55.42
2022-10-13T08:08:47.973Z,61.17
2022-10-13T08:11:17.623Z,51.30
2022-10-13T08:13:50.000Z,51.85
2022-10-13T08:16:21.674Z,53.58
2022-10-13T08:18:49.482Z,56.60
2022-10-13T08:24:13.181Z,50.53
2022-10-13T08:26:40.894Z,54.25
2022-10-13T08:29:24.442Z,53.13
2022-10-13T08:31:53.583Z,50.53
2022-10-13T08:34:22.960Z,45.63
2022-10-13T08:36:53.637Z,47.47
2022-10-13T08:39:22.358Z,46.85
2022-10-13T08:41:50.241Z,52.03
2022-10-13T08:47:27.717Z,45.60
2022-10-13T08:49:59.973Z,43.75
2022-10-13T08:52:43.087Z,46.50
2022-10-13T08:55:18.095Z,41.72
2022-10-13T08:57:45.773Z,50.72
2022-10-13T09:00:13.808Z,41.35
2022-10-13T09:02:43.913Z,46.92
2022-10-13T09:05:25.605Z,40.90
2022-10-13T09:07:56.794Z,39.38
2022-10-13T09:10:26.039Z,40.10
2022-10-13T09:12:53.751Z,36.97
2022-10-13T09:15:21.490Z,40.50
2022-10-13T09:18:08.693Z,36.58
2022-10-13T09:20:36.369Z,45.60
2022-10-13T09:23:22.781Z,38.35
2022-10-13T09:25:51.653Z,34.63
2022-10-13T09:28:29.883Z,34.22
2022-10-13T09:31:03.558Z,42.30
2022-10-13T09:33:35.374Z,33.08
2022-10-13T09:36:03.321Z,40.47
2022-10-13T09:38:31.054Z,35.67
2022-10-13T09:41:14.347Z,48.08
2022-10-13T09:43:42.180Z,45.65
2022-10-13T09:46:31.757Z,42.05
2022-10-13T09:49:03.623Z,48.45
2022-10-13T09:51:43.002Z,41.95
2022-10-13T09:54:28.336Z,49.47
2022-10-13T09:57:22.200Z,47.90
2022-10-13T09:59:53.609Z,49.85
2022-10-13T10:02:35.774Z,51.97
2022-10-13T10:05:14.239Z,54.88
2022-10-13T10:07:42.000Z,49.15
2022-10-13T10:10:18.786Z,56.13
2022-10-13T10:12:47.170Z,51.35
2022-10-13T10:15:21.579Z,46.72
2022-10-13T10:17:55.111Z,42.50
2022-10-13T10:20:53.321Z,50.58
2022-10-13T10:23:46.669Z,52.60
2022-10-13T10:26:31.642Z,54.13
2022-10-13T10:29:06.572Z,50.20
2022-10-13T10:31:51.562Z,60.97
2022-10-13T10:34:19.073Z,61.90
2022-10-13T10:37:02.417Z,67.95
2022-10-13T10:39:36.160Z,67.85
2022-10-13T10:42:27.606Z,68.25
2022-10-13T10:44:55.407Z,64.68
2022-10-13T10:47:30.531Z,76.40
2022-10-13T10:50:03.395Z,75.20
2022-10-13T10:52:56.833Z,71.30
2022-10-13T10:55:35.768Z,76.28
2022-10-13T10:58:18.688Z,76.70
2022-10-13T11:00:54.329Z,75.80
2022-10-13T11:03:21.971Z,83.93
2022-10-13T11:06:03.026Z,85.78
2022-10-13T11:08:44.369Z,76.07
2022-10-13T11:11:30.140Z,77.97
2022-10-13T11:14:05.950Z,76.88
2022-10-13T11:16:58.256Z,82.45
2022-10-13T11:19:33.658Z,77.35
2022-10-13T11:22:01.229Z,83.72
2022-10-13T11:24:33.747Z,85.50
2022-10-13T11:27:17.189Z,88.63
2022-10-13T11:29:49.195Z,81.07
2022-10-13T11:32:26.280Z,93.85
2022-10-13T11:35:21.439Z,90.78
2022-10-13T11:38:06.906Z,92.63
2022-10-13T13:01:36.249Z,38.97
2022-10-13T13:04:32.565Z,36.80
2022-10-13T13:07:01.526Z,36.53
2022-10-13T13:09:31.020Z,39.45
2022-10-13T13:12:10.568Z,32.97
2022-10-13T13:29:25.273Z,25.95
2022-10-13T13:31:53.318Z,48.22
2022-10-13T13:34:23.756Z,48.22
2022-10-13T13:36:52.261Z,45.63
